Time;durP1;ratioP1;P1;durP2;ratioP2;P2;SDS_P1;SDS_P2;PMS_P1;PMS_P2;Temp;Humidity;BMP_temperature;BMP_pressure;BME280_temperature;BME280_humidity;BME280_pressure;Samples;Min_cycle;Max_cycle;Signal;HPM_P1;HPM_P2
2022/05/02 00:00:26;;;;;;;0.60;0.60;;;;;;;6.63;47.47;99457.31;4914936;29;20052;-83
2022/05/02 00:02:54;;;;;;;0.50;0.50;;;;;;;6.52;47.33;99447.22;4914991;29;20075;-85
2022/05/02 00:05:21;;;;;;;0.60;0.60;;;;;;;6.53;47.88;99458.78;4914657;29;20076;-85
2022/05/02 00:07:48;;;;;;;0.60;0.60;;;;;;;6.50;47.97;99441.25;4914761;29;20044;-85
2022/05/02 00:10:16;;;;;;;0.50;0.50;;;;;;;6.50;48.03;99444.75;4914790;29;20500;-85
2022/05/02 00:12:45;;;;;;;0.60;0.60;;;;;;;6.47;48.35;99433.63;4898667;29;20155;-86
2022/05/02 00:15:13;;;;;;;0.50;0.50;;;;;;;6.44;48.59;99448.28;4898713;29;20059;-85
2022/05/02 00:18:01;;;;;;;0.60;0.60;;;;;;;6.38;48.82;99449.09;4897648;29;20079;-85
2022/05/02 00:20:31;;;;;;;0.60;0.60;;;;;;;6.38;48.88;99443.75;4916107;29;20047;-86
2022/05/02 00:23:08;;;;;;;0.50;0.50;;;;;;;6.37;48.95;99441.25;4915035;29;20051;-85
2022/05/02 00:25:41;;;;;;;0.50;0.50;;;;;;;6.27;49.04;99441.66;4914605;29;20527;-84
2022/05/02 00:28:14;;;;;;;0.60;0.60;;;;;;;6.23;49.39;99440.44;4914855;29;20056;-85
2022/05/02 00:30:43;;;;;;;0.60;0.60;;;;;;;6.17;49.47;99438.56;4898335;29;20055;-85
2022/05/02 00:33:13;;;;;;;0.60;0.60;;;;;;;6.12;49.89;99435.69;4914681;29;20048;-85
2022/05/02 00:35:42;;;;;;;0.50;0.50;;;;;;;6.07;50.24;99431.75;4898475;29;20139;-86
2022/05/02 00:38:09;;;;;;;0.50;0.50;;;;;;;6.01;50.03;99429.09;4918250;29;20059;-85
2022/05/02 00:40:37;;;;;;;0.60;0.60;;;;;;;6.06;50.09;99435.47;4914532;29;20064;-84
2022/05/02 00:43:04;;;;;;;0.50;0.50;;;;;;;6.05;50.62;99432.97;4933660;29;20048;-85
2022/05/02 00:45:37;;;;;;;0.60;0.60;;;;;;;6.01;50.89;99442.47;4933216;29;20155;-84
2022/05/02 00:48:04;;;;;;;0.60;0.60;;;;;;;5.95;50.94;99435.25;4916840;29;20075;-85
2022/05/02 00:50:34;;;;;;;0.60;0.60;;;;;;;5.89;51.28;99431.50;4916513;29;20138;-84
2022/05/02 00:53:16;;;;;;;0.60;0.60;;;;;;;5.87;51.40;99433.56;4937237;29;20147;-84
2022/05/02 00:55:45;;;;;;;0.60;0.60;;;;;;;5.79;51.66;99428.38;4904188;29;20051;-84
2022/05/02 00:58:16;;;;;;;0.50;0.50;;;;;;;5.76;51.38;99426.13;4934089;29;20554;-85
2022/05/02 01:00:45;;;;;;;0.57;0.57;;;;;;;5.75;51.29;99427.16;4934201;29;20078;-83
2022/05/02 01:03:14;;;;;;;0.50;0.50;;;;;;;5.73;51.22;99424.69;4933612;29;20139;-84
2022/05/02 01:08:33;;;;;;;0.57;0.57;;;;;;;5.70;51.15;99426.91;4933134;29;20058;-84
2022/05/02 01:11:00;;;;;;;0.60;0.60;;;;;;;5.71;51.65;99421.38;4916592;29;20111;-85
2022/05/02 01:13:38;;;;;;;0.50;0.50;;;;;;;5.72;52.17;99417.69;4933350;29;20043;-86
2022/05/02 01:16:21;;;;;;;0.60;0.60;;;;;;;5.63;52.27;99411.66;4933325;29;20060;-86
2022/05/02 01:18:51;;;;;;;0.60;0.60;;;;;;;5.65;52.36;99422.19;4933084;29;20070;-84
2022/05/02 01:21:23;;;;;;;0.60;0.60;;;;;;;5.62;52.56;99418.06;4932894;29;20043;-85
2022/05/02 01:23:55;;;;;;;0.60;0.60;;;;;;;5.61;52.86;99411.03;4916388;29;20095;-84
2022/05/02 01:26:22;;;;;;;0.60;0.60;;;;;;;5.60;52.70;99409.41;4932933;29;20138;-86
2022/05/02 01:28:58;;;;;;;0.60;0.60;;;;;;;5.64;53.03;99416.00;4933033;29;20047;-84
2022/05/02 01:31:26;;;;;;;0.50;0.50;;;;;;;5.60;53.34;99417.44;4917231;29;20079;-85
2022/05/02 01:33:56;;;;;;;0.60;0.60;;;;;;;5.59;53.77;99423.81;4942745;29;20052;-85
2022/05/02 01:36:24;;;;;;;0.55;0.55;;;;;;;5.54;53.71;99420.09;4944748;29;20141;-85
2022/05/02 01:38:54;;;;;;;0.60;0.60;;;;;;;5.60;53.39;99430.81;4922844;29;20059;-84
2022/05/02 01:41:21;;;;;;;0.50;0.50;;;;;;;5.58;52.94;99422.16;4932778;29;20115;-84
2022/05/02 01:43:48;;;;;;;0.60;0.60;;;;;;;5.61;52.99;99423.63;4915674;29;20525;-84
2022/05/02 01:46:16;;;;;;;0.60;0.60;;;;;;;5.53;53.19;99424.63;4932986;29;20451;-84
2022/05/02 01:48:43;;;;;;;0.60;0.60;;;;;;;5.52;53.24;99417.63;4915942;29;20048;-84
2022/05/02 01:51:10;;;;;;;0.60;0.60;;;;;;;5.50;53.12;99424.22;4916799;29;20067;-85
2022/05/02 01:53:37;;;;;;;0.60;0.60;;;;;;;5.46;53.37;99425.63;4935830;29;20079;-84
2022/05/02 01:56:06;;;;;;;0.50;0.50;;;;;;;5.32;53.48;99411.38;4936346;29;20521;-84
2022/05/02 01:58:35;;;;;;;0.50;0.50;;;;;;;5.52;53.40;99422.13;4935852;29;20054;-84
2022/05/02 02:01:02;;;;;;;0.60;0.60;;;;;;;5.54;53.31;99428.94;4936808;29;20054;-84
2022/05/02 02:03:30;;;;;;;0.60;0.60;;;;;;;5.54;53.49;99426.25;4936720;29;20048;-86
2022/05/02 02:06:00;;;;;;;0.50;0.50;;;;;;;5.60;53.51;99430.00;4936093;29;20056;-85
2022/05/02 02:08:30;;;;;;;0.50;0.50;;;;;;;5.60;53.38;99424.66;4918609;29;20639;-85
2022/05/02 02:10:59;;;;;;;0.52;0.52;;;;;;;5.61;53.72;99427.09;4935835;29;20580;-84
2022/05/02 02:13:27;;;;;;;0.60;0.60;;;;;;;5.58;53.61;99419.50;4888118;29;20068;-86
2022/05/02 02:15:54;;;;;;;0.60;0.60;;;;;;;5.64;53.99;99426.69;4936179;29;20055;-84
2022/05/02 02:18:24;;;;;;;0.60;0.60;;;;;;;5.64;54.32;99429.38;4935326;29;20586;-85
2022/05/02 02:20:55;;;;;;;0.60;0.60;;;;;;;5.67;54.51;99424.66;4936478;29;20134;-85
2022/05/02 02:23:31;;;;;;;0.60;0.60;;;;;;;5.67;54.47;99436.19;4919801;29;20074;-84
2022/05/02 02:25:58;;;;;;;0.60;0.60;;;;;;;5.71;54.50;99439.28;4935703;29;20071;-85
2022/05/02 02:28:25;;;;;;;0.60;0.60;;;;;;;5.73;54.14;99443.44;4935208;29;20596;-85
2022/05/02 02:30:52;;;;;;;0.60;0.60;;;;;;;5.74;53.86;99439.72;4918730;29;20426;-84
2022/05/02 02:33:20;;;;;;;0.60;0.60;;;;;;;5.79;54.07;99439.09;4918590;29;20058;-84
2022/05/02 02:35:48;;;;;;;0.50;0.50;;;;;;;5.82;54.21;99439.53;4935577;29;20056;-85
2022/05/02 02:38:18;;;;;;;0.60;0.60;;;;;;;5.85;53.99;99436.44;4903187;29;20098;-84
2022/05/02 02:40:45;;;;;;;0.60;0.60;;;;;;;5.88;54.03;99443.25;4935322;29;20574;-84
2022/05/02 02:43:15;;;;;;;0.60;0.60;;;;;;;5.86;54.19;99442.63;4935363;29;20048;-85
2022/05/02 02:45:43;;;;;;;0.60;0.60;;;;;;;5.89;53.76;99433.34;4935182;29;20075;-84
2022/05/02 02:48:10;;;;;;;0.60;0.60;;;;;;;5.97;53.69;99436.69;4935365;29;20094;-85
2022/05/02 02:50:38;;;;;;;0.50;0.50;;;;;;;6.01;53.65;99429.91;4918276;29;20062;-84
2022/05/02 02:53:05;;;;;;;0.50;0.50;;;;;;;6.08;53.59;99441.47;4934261;29;20051;-85
2022/05/02 02:55:34;;;;;;;0.55;0.55;;;;;;;6.11;53.76;99447.44;4902465;29;20099;-83
2022/05/02 02:58:02;;;;;;;0.60;0.60;;;;;;;6.14;53.62;99447.84;4935041;29;20047;-83
2022/05/02 03:00:30;;;;;;;0.60;0.60;;;;;;;6.18;53.57;99442.88;4934861;29;20422;-85
2022/05/02 03:02:58;;;;;;;0.50;0.50;;;;;;;6.15;53.88;99445.97;4934266;29;20054;-86
2022/05/02 03:08:10;;;;;;;0.60;0.60;;;;;;;6.18;54.59;99449.09;4934978;29;20047;-85
2022/05/02 03:10:38;;;;;;;0.60;0.60;;;;;;;6.21;54.79;99455.91;4934754;29;20142;-86
2022/05/02 03:13:05;;;;;;;0.50;0.50;;;;;;;6.19;54.79;99445.38;4934643;29;20118;-85
2022/05/02 03:15:33;;;;;;;0.60;0.60;;;;;;;6.24;54.70;99452.81;4934941;29;20043;-85
2022/05/02 03:18:06;;;;;;;0.60;0.60;;;;;;;6.25;54.90;99449.09;4918970;29;20158;-84
2022/05/02 03:20:34;;;;;;;0.60;0.60;;;;;;;6.22;54.51;99444.97;4917105;29;20051;-85
2022/05/02 03:23:04;;;;;;;0.57;0.57;;;;;;;6.27;54.93;99452.38;4918045;29;20044;-84
2022/05/02 03:25:34;;;;;;;0.60;0.60;;;;;;;6.28;54.50;99446.03;4917846;29;20055;-84
2022/05/02 03:28:05;;;;;;;0.50;0.50;;;;;;;6.36;55.12;99447.66;4934546;29;20052;-85
2022/05/02 03:30:32;;;;;;;0.50;0.50;;;;;;;6.39;55.04;99457.97;4934182;29;20142;-84
2022/05/02 03:33:03;;;;;;;0.60;0.60;;;;;;;6.38;55.37;99448.25;4934525;29;20062;-85
2022/05/02 03:35:33;;;;;;;0.52;0.52;;;;;;;6.42;55.67;99452.19;4917759;29;20434;-85
2022/05/02 03:38:01;;;;;;;0.70;0.70;;;;;;;6.49;55.53;99456.53;4934401;29;20110;-86
2022/05/02 03:40:28;;;;;;;0.60;0.60;;;;;;;6.54;55.44;99457.78;4917420;29;20055;-85
2022/05/02 03:42:55;;;;;;;0.60;0.60;;;;;;;6.52;55.66;99447.22;4917571;29;20075;-86
2022/05/02 03:45:27;;;;;;;0.60;0.60;;;;;;;6.67;55.47;99452.38;4917217;29;20059;-86
2022/05/02 03:47:54;;;;;;;0.60;0.60;;;;;;;6.65;55.71;99449.09;4903602;29;20102;-84
2022/05/02 03:50:26;;;;;;;0.60;0.60;;;;;;;6.77;55.58;99463.50;4936726;29;20047;-85
2022/05/02 03:52:57;;;;;;;0.60;0.60;;;;;;;6.87;55.27;99460.41;4934229;29;20079;-86
2022/05/02 03:55:30;;;;;;;0.60;0.60;;;;;;;7.02;54.55;99465.53;4934174;29;20056;-87
2022/05/02 03:57:57;;;;;;;0.60;0.60;;;;;;;7.05;53.52;99451.69;4933975;29;20098;-84
2022/05/02 04:00:26;;;;;;;0.50;0.50;;;;;;;7.19;52.84;99457.84;4933759;29;20081;-86
2022/05/02 04:02:53;;;;;;;0.60;0.60;;;;;;;7.24;52.38;99456.19;4934129;29;20079;-86
2022/05/02 04:05:23;;;;;;;0.60;0.60;;;;;;;7.34;52.67;99456.56;4916729;29;20054;-85
2022/05/02 04:07:50;;;;;;;0.60;0.60;;;;;;;7.45;53.12;99459.63;4917282;29;20062;-85
2022/05/02 04:10:18;;;;;;;0.60;0.60;;;;;;;7.52;53.74;99463.94;4885154;29;20095;-84
2022/05/02 04:12:45;;;;;;;0.50;0.50;;;;;;;7.54;52.79;99455.63;4901541;29;20059;-84
2022/05/02 04:15:12;;;;;;;0.50;0.50;;;;;;;7.60;52.36;99465.53;4916605;29;20146;-87
2022/05/02 04:17:40;;;;;;;0.60;0.60;;;;;;;7.64;52.38;99465.94;4933308;29;20119;-85
2022/05/02 04:20:10;;;;;;;0.60;0.60;;;;;;;7.68;51.80;99469.84;4935569;29;20063;-86
2022/05/02 04:22:39;;;;;;;0.60;0.60;;;;;;;7.63;51.05;99458.91;4936748;29;20063;-84
2022/05/02 04:25:08;;;;;;;0.60;0.60;;;;;;;7.68;50.91;99470.66;4934199;29;20063;-86
2022/05/02 04:27:35;;;;;;;0.60;0.60;;;;;;;7.61;50.73;99464.50;4916978;29;20047;-84
2022/05/02 04:30:03;;;;;;;0.60;0.60;;;;;;;7.66;50.86;99464.69;4934756;29;20471;-85
2022/05/02 04:32:30;;;;;;;0.50;0.50;;;;;;;7.69;50.68;99469.63;4935303;29;20536;-87
2022/05/02 04:34:58;;;;;;;0.60;0.60;;;;;;;7.63;50.87;99465.13;4937933;29;20044;-85
2022/05/02 04:37:25;;;;;;;0.60;0.60;;;;;;;7.63;51.11;99465.13;4937395;29;20058;-86
2022/05/02 04:39:58;;;;;;;0.60;0.60;;;;;;;7.66;51.13;99474.59;4935891;29;20059;-85
2022/05/02 04:42:26;;;;;;;0.60;0.60;;;;;;;7.59;51.43;99467.38;4918146;29;20411;-85
2022/05/02 04:44:59;;;;;;;0.60;0.60;;;;;;;7.65;51.55;99470.28;4918573;29;20514;-85
2022/05/02 04:47:27;;;;;;;0.60;0.60;;;;;;;7.70;51.47;99470.47;4935805;29;20071;-85
2022/05/02 04:50:01;;;;;;;;;;;;;;;7.73;51.24;99467.34;4918077;29;20138;-85
2022/05/02 04:52:29;;;;;;;0.60;0.60;;;;;;;7.79;51.27;99469.16;4934666;29;19931;-85
2022/05/02 04:54:56;;;;;;;0.68;0.68;;;;;;;7.87;50.92;99465.41;4934763;29;20055;-85
2022/05/02 04:57:23;;;;;;;0.60;0.60;;;;;;;7.97;50.56;99471.13;4934433;29;20047;-83
2022/05/02 04:59:50;;;;;;;0.60;0.60;;;;;;;8.02;50.67;99458.66;4934963;29;20091;-86
2022/05/02 05:02:20;;;;;;;0.60;0.60;;;;;;;8.00;50.52;99462.63;4917822;29;20431;-84
2022/05/02 05:04:48;;;;;;;0.60;0.60;;;;;;;8.09;50.63;99469.41;4934389;29;20051;-85
2022/05/02 05:07:16;;;;;;;0.60;0.60;;;;;;;8.15;50.65;99462.31;4917508;29;20052;-86
2022/05/02 05:09:43;;;;;;;0.60;0.60;;;;;;;8.18;50.62;99457.34;4901708;29;20458;-85
2022/05/02 05:12:34;;;;;;;0.60;0.60;;;;;;;8.34;50.34;99464.03;4917534;29;20066;-84
2022/05/02 05:18:11;;;;;;;0.60;0.60;;;;;;;8.48;50.04;99464.78;4933919;29;20503;-83
2022/05/02 05:21:02;;;;;;;0.60;0.60;;;;;;;8.55;50.18;99467.44;4949128;29;20274;-86
2022/05/02 05:24:19;;;;;;;0.60;0.60;;;;;;;8.71;50.59;99466.88;4934525;29;20092;-86
2022/05/02 05:27:05;;;;;;;0.60;0.60;;;;;;;8.83;50.50;99461.59;4936473;29;20099;-84
2022/05/02 05:30:04;;;;;;;0.60;0.60;;;;;;;8.87;50.21;99466.31;4940909;29;20051;-85
2022/05/02 05:32:55;;;;;;;0.60;0.60;;;;;;;8.92;49.87;99460.25;4877164;29;20428;-85
2022/05/02 05:35:41;;;;;;;0.60;0.60;;;;;;;8.78;49.24;99461.44;4881183;29;20052;-85
2022/05/02 05:38:17;;;;;;;0.60;0.60;;;;;;;8.60;49.09;99468.41;4869520;29;20057;-83
2022/05/02 05:40:48;;;;;;;0.50;0.50;;;;;;;8.46;49.16;99467.72;4877275;29;20053;-84
2022/05/02 05:43:40;;;;;;;0.60;0.60;;;;;;;8.60;49.23;99470.28;4869064;29;20049;-84
2022/05/02 05:46:18;;;;;;;0.60;0.60;;;;;;;8.81;48.67;99471.75;4870420;29;20600;-82
2022/05/02 05:49:39;;;;;;;0.70;0.70;;;;;;;9.17;48.57;99476.38;4873071;29;20054;-83
2022/05/02 05:52:06;;;;;;;0.70;0.70;;;;;;;9.48;47.62;99471.88;4864828;29;20525;-84
2022/05/02 05:54:48;;;;;;;0.60;0.60;;;;;;;9.50;45.92;99461.69;4859623;29;20105;-83
2022/05/02 05:57:40;;;;;;;0.60;0.60;;;;;;;9.53;46.28;99463.94;4859415;29;20049;-83
2022/05/02 06:00:12;;;;;;;0.60;0.60;;;;;;;9.71;45.86;99465.78;4859571;29;20053;-83
2022/05/02 06:03:08;;;;;;;0.57;0.57;;;;;;;9.79;44.21;99460.06;4860539;29;20046;-85
2022/05/02 06:05:41;;;;;;;0.50;0.50;;;;;;;9.73;44.01;99451.03;4850961;29;20060;-84
2022/05/02 06:08:18;;;;;;;0.60;0.60;;;;;;;9.90;42.02;99451.22;4865519;29;20075;-86
2022/05/02 06:10:49;;;;;;;0.60;0.60;;;;;;;9.80;40.67;99445.53;4902635;29;20147;-84
2022/05/02 06:13:19;;;;;;;0.63;0.63;;;;;;;9.67;40.75;99451.94;4906259;29;20059;-83
2022/05/02 06:18:56;;;;;;;0.60;0.60;;;;;;;9.76;40.11;99444.34;4926094;29;20586;-84
2022/05/02 06:21:23;;;;;;;0.60;0.60;;;;;;;9.80;39.95;99442.84;4939065;29;20134;-83
2022/05/02 06:23:51;;;;;;;0.60;0.60;;;;;;;10.12;40.09;99448.78;4927703;29;20043;-83
2022/05/02 06:26:22;;;;;;;0.60;0.60;;;;;;;10.36;39.54;99447.00;4927589;29;20079;-82
2022/05/02 06:28:50;;;;;;;0.60;0.60;;;;;;;10.46;39.70;99441.03;4926020;29;20063;-82
2022/05/02 06:31:26;;;;;;;0.60;0.60;;;;;;;10.44;39.45;99453.13;4926251;29;20059;-83
2022/05/02 06:34:01;;;;;;;0.60;0.60;;;;;;;10.39;38.34;99432.25;4925644;29;20498;-82
2022/05/02 06:36:42;;;;;;;;;;;;;;;10.65;38.63;99440.94;4896202;29;20404;-83
2022/05/02 06:39:18;;;;;;;0.60;0.60;;;;;;;10.80;37.10;99435.88;4924132;29;19965;-83
2022/05/02 06:42:19;;;;;;;0.60;0.60;;;;;;;10.67;36.86;99438.84;4907770;29;20060;-82
2022/05/02 06:45:40;;;;;;;0.60;0.60;;;;;;;10.54;35.24;99446.09;4908639;29;20056;-83
2022/05/02 06:48:41;;;;;;;0.60;0.60;;;;;;;10.63;34.35;99423.09;4866296;29;20117;-83
2022/05/02 06:51:22;;;;;;;0.60;0.60;;;;;;;10.85;34.15;99441.41;4840406;29;20044;-82
2022/05/02 06:54:21;;;;;;;0.60;0.60;;;;;;;10.92;34.04;99435.88;4874300;29;20061;-82
2022/05/02 06:56:49;;;;;;;0.60;0.60;;;;;;;11.02;33.90;99431.53;4871880;29;20062;-83
2022/05/02 06:59:40;;;;;;;0.60;0.60;;;;;;;11.18;33.07;99419.16;4863326;29;20057;-83
2022/05/02 07:02:26;;;;;;;0.50;0.50;;;;;;;11.17;32.63;99422.94;4866372;29;20100;-82
2022/05/02 07:04:55;;;;;;;0.60;0.60;;;;;;;11.33;32.64;99418.66;4865202;29;20061;-81
2022/05/02 07:07:42;;;;;;;0.50;0.50;;;;;;;11.27;32.76;99417.75;4865126;29;20539;-82
2022/05/02 07:10:22;;;;;;;0.50;0.50;;;;;;;11.36;32.35;99430.88;4854012;29;20054;-83
2022/05/02 07:13:15;;;;;;;0.60;0.60;;;;;;;11.44;31.04;99422.38;4875386;29;20053;-83
2022/05/02 07:16:03;;;;;;;0.52;0.52;;;;;;;11.38;30.67;99429.56;4877756;29;20076;-84
2022/05/02 07:18:49;;;;;;;0.60;0.60;;;;;;;11.27;31.03;99417.75;4900218;29;20060;-84
2022/05/02 07:21:49;;;;;;;0.60;0.60;;;;;;;11.39;31.53;99427.69;4935260;29;20066;-81
2022/05/02 07:24:46;;;;;;;0.50;0.50;;;;;;;11.34;32.09;99416.78;4933369;29;20051;-86
2022/05/02 07:27:31;;;;;;;0.55;0.55;;;;;;;11.45;32.56;99410.53;4928535;29;20072;-83
2022/05/02 07:30:02;;;;;;;0.60;0.60;;;;;;;11.76;31.83;99411.91;4935499;29;20067;-83
2022/05/02 07:32:33;;;;;;;0.60;0.60;;;;;;;11.88;31.86;99420.03;4935123;29;20059;-83
2022/05/02 07:35:10;;;;;;;0.60;0.60;;;;;;;12.01;30.95;99403.47;4918463;29;20052;-83
2022/05/02 07:37:42;;;;;;;0.70;0.70;;;;;;;11.88;30.27;99406.50;4918126;29;20490;-84
2022/05/02 07:40:14;;;;;;;0.70;0.70;;;;;;;12.07;29.41;99416.00;4918192;29;20055;-83
2022/05/02 07:42:48;;;;;;;0.70;0.70;;;;;;;12.21;29.09;99411.13;4934698;29;20047;-83
2022/05/02 07:45:21;;;;;;;0.70;0.70;;;;;;;12.50;29.09;99401.03;4935238;29;20051;-84
2022/05/02 07:47:48;;;;;;;0.80;0.80;;;;;;;13.01;28.87;99404.47;4934709;29;20530;-83
2022/05/02 07:50:19;;;;;;;0.80;0.80;;;;;;;13.24;28.93;99394.44;4919421;29;20051;-82
2022/05/02 07:52:53;;;;;;;0.80;0.80;;;;;;;13.58;28.28;99391.63;4919020;29;20052;-83
2022/05/02 07:55:24;;;;;;;0.40;0.40;;;;;;;12.97;28.70;99397.91;4918312;29;20048;-83
2022/05/02 07:57:51;;;;;;;0.50;0.50;;;;;;;12.56;29.03;99389.22;4902716;29;20047;-84
2022/05/02 08:00:19;;;;;;;0.80;0.80;;;;;;;12.76;28.04;99402.22;4918011;29;20070;-84
2022/05/02 08:02:46;;;;;;;0.80;0.80;;;;;;;13.07;26.78;99405.34;4934764;29;20059;-84
2022/05/02 08:05:21;;;;;;;0.80;0.80;;;;;;;13.53;25.72;99384.25;4934860;29;20098;-84
2022/05/02 08:07:51;;;;;;;0.80;0.80;;;;;;;14.12;25.80;99402.44;4918353;29;20079;-84
2022/05/02 08:10:33;;;;;;;0.47;0.47;;;;;;;13.37;25.91;99396.81;4920635;29;20526;-84
2022/05/02 08:13:22;;;;;;;0.40;0.40;;;;;;;12.78;27.48;99391.94;4935014;29;20059;-83
2022/05/02 08:15:59;;;;;;;0.40;0.40;;;;;;;12.38;27.75;99402.19;4917766;29;20099;-83
2022/05/02 08:18:39;;;;;;;0.40;0.40;;;;;;;12.10;28.17;99391.19;4902094;29;20148;-83
2022/05/02 08:21:22;;;;;;;0.50;0.50;;;;;;;12.01;28.06;99395.38;4896443;29;20175;-84
2022/05/02 08:27:21;;;;;;;0.63;0.63;;;;;;;13.77;26.12;99403.75;4896515;29;20051;-83
2022/05/02 08:30:20;;;;;;;0.88;0.88;;;;;;;14.73;25.21;99381.22;4896667;29;20056;-83
2022/05/02 08:33:06;;;;;;;0.80;0.80;;;;;;;15.63;23.08;99382.16;4880103;29;20044;-83
2022/05/02 08:35:50;;;;;;;0.50;0.50;;;;;;;15.03;23.04;99382.47;4895364;29;20064;-84
2022/05/02 08:38:33;;;;;;;0.60;0.60;;;;;;;13.73;24.38;99372.00;4896290;29;20512;-83
2022/05/02 08:41:08;;;;;;;0.68;0.68;;;;;;;14.36;23.86;99386.66;4895342;29;20508;-83
2022/05/02 08:44:05;;;;;;;0.60;0.60;;;;;;;14.38;24.04;99372.78;4895903;29;20111;-83
2022/05/02 08:47:10;;;;;;;0.52;0.52;;;;;;;14.85;23.23;99374.78;4894835;29;20579;-83
2022/05/02 08:50:10;;;;;;;0.50;0.50;;;;;;;14.76;23.63;99357.31;4895868;29;20068;-83
2022/05/02 08:52:56;;;;;;;0.50;0.50;;;;;;;14.84;23.70;99365.81;4896051;29;20045;-84
2022/05/02 08:55:44;;;;;;;0.50;0.50;;;;;;;14.31;24.34;99356.75;4896430;29;20144;-84
2022/05/02 08:58:37;;;;;;;0.50;0.50;;;;;;;13.69;25.20;99363.53;4896674;29;20072;-84
2022/05/02 09:01:28;;;;;;;0.50;0.50;;;;;;;13.50;24.98;99356.84;4898628;29;20531;-83
2022/05/02 09:04:17;;;;;;;0.50;0.50;;;;;;;13.60;24.98;99356.94;4901417;29;20040;-84
2022/05/02 09:06:59;;;;;;;0.90;0.90;;;;;;;14.72;24.15;99344.28;4899546;29;20069;-84
2022/05/02 09:09:49;;;;;;;0.50;0.50;;;;;;;15.33;24.29;99345.63;4900141;29;20071;-84
2022/05/02 09:12:35;;;;;;;0.40;0.40;;;;;;;15.12;23.89;99337.38;4883593;29;20052;-83
2022/05/02 09:15:26;;;;;;;0.90;0.90;;;;;;;15.68;23.40;99334.00;4900385;29;20108;-83
2022/05/02 09:18:42;;;;;;;0.80;0.80;;;;;;;17.15;21.27;99344.19;4884512;29;20056;-83
2022/05/02 09:21:28;;;;;;;0.90;0.90;;;;;;;17.43;21.12;99334.50;4898842;29;20056;-81
2022/05/02 09:24:17;;;;;;;0.90;0.90;;;;;;;18.38;20.74;99336.81;4899823;29;20508;-85
2022/05/02 09:26:56;;;;;;;0.90;0.90;;;;;;;18.99;19.80;99326.34;4899493;29;20045;-84
2022/05/02 09:29:44;;;;;;;0.90;0.90;;;;;;;19.26;19.32;99320.25;4899865;29;20512;-84
2022/05/02 09:32:18;;;;;;;0.90;0.90;;;;;;;18.78;19.05;99333.97;4898371;29;20056;-83
2022/05/02 09:34:56;;;;;;;0.80;0.80;;;;;;;17.65;19.86;99325.94;4898232;29;20091;-84
2022/05/02 09:37:39;;;;;;;0.90;0.90;;;;;;;18.27;19.81;99323.53;4898281;29;20049;-84
2022/05/02 09:40:17;;;;;;;0.80;0.80;;;;;;;18.78;19.37;99325.78;4898062;29;20060;-84
2022/05/02 09:43:09;;;;;;;0.90;0.90;;;;;;;19.43;18.89;99317.03;4899093;29;20523;-83
2022/05/02 09:52:25;;;;;;;0.85;0.85;;;;;;;19.25;18.65;99304.97;4899822;29;20076;-84
2022/05/02 09:58:13;;;;;;;0.90;0.90;;;;;;;19.17;18.47;99279.06;4898261;29;20050;-84
2022/05/02 10:01:08;;;;;;;0.90;0.90;;;;;;;19.30;18.47;99288.47;4898629;29;20052;-83
2022/05/02 10:03:53;;;;;;;;;;;;;;;19.17;19.00;99281.81;4899688;29;20083;-84
2022/05/02 10:06:33;;;;;;;0.40;0.40;;;;;;;18.33;19.41;99287.69;4882714;29;19932;-84
2022/05/02 10:09:04;;;;;;;0.40;0.40;;;;;;;16.72;21.05;99284.63;4898615;29;20059;-84
2022/05/02 10:11:32;;;;;;;0.80;0.80;;;;;;;16.84;21.16;99276.19;4897831;29;20055;-84
2022/05/02 10:14:33;;;;;;;0.50;0.50;;;;;;;16.55;21.25;99284.94;4897857;29;20063;-84
2022/05/02 10:17:00;;;;;;;0.50;0.50;;;;;;;18.19;19.84;99273.88;4900360;29;20072;-84
2022/05/02 10:20:04;;;;;;;0.80;0.80;;;;;;;18.17;20.19;99269.81;4936636;29;20090;-84
2022/05/02 10:22:51;;;;;;;0.90;0.90;;;;;;;18.79;18.50;99279.00;4936337;29;20080;-82
2022/05/02 10:25:19;;;;;;;0.90;0.90;;;;;;;18.89;18.53;99267.13;4918682;29;20044;-83
2022/05/02 10:28:05;;;;;;;0.40;0.40;;;;;;;19.52;18.27;99259.69;4937142;29;20107;-85
2022/05/02 10:30:51;;;;;;;0.40;0.40;;;;;;;17.95;19.40;99253.91;4936472;29;20062;-85
2022/05/02 10:33:41;;;;;;;0.90;0.90;;;;;;;18.80;19.44;99256.03;4937518;29;20052;-84
2022/05/02 10:36:10;;;;;;;0.88;0.88;;;;;;;20.85;17.66;99240.88;4915784;29;20052;-85
2022/05/02 10:39:01;;;;;;;0.30;0.30;;;;;;;21.30;17.83;99232.78;4937972;29;20139;-85
2022/05/02 10:41:48;;;;;;;0.40;0.40;;;;;;;20.00;18.78;99234.81;4937836;29;20062;-85
2022/05/02 10:44:16;;;;;;;1.00;1.00;;;;;;;21.59;16.93;99237.84;4925139;29;20071;-85
2022/05/02 10:46:45;;;;;;;0.90;0.90;;;;;;;22.28;16.49;99230.06;4941977;29;20047;-85
2022/05/02 10:49:31;;;;;;;0.90;0.90;;;;;;;23.10;15.81;99235.19;4939165;29;20523;-85
2022/05/02 10:52:06;;;;;;;0.82;0.82;;;;;;;21.79;16.12;99220.06;4919592;29;20052;-85
2022/05/02 10:54:39;;;;;;;0.73;0.73;;;;;;;21.24;16.57;99218.31;4935767;29;20062;-85
2022/05/02 10:57:15;;;;;;;0.82;0.82;;;;;;;20.97;17.13;99232.94;4919030;29;20051;-86
2022/05/02 10:59:45;;;;;;;0.40;0.40;;;;;;;18.97;18.48;99227.38;4936111;29;20055;-85
2022/05/02 11:02:35;;;;;;;0.90;0.90;;;;;;;19.62;18.07;99221.19;4936091;29;20059;-84
2022/05/02 11:05:11;;;;;;;0.70;0.70;;;;;;;20.95;17.52;99205.00;4936342;29;20056;-86
2022/05/02 11:07:44;;;;;;;0.80;0.80;;;;;;;21.51;16.95;99208.41;4919086;29;20043;-85
2022/05/02 11:10:14;;;;;;;0.70;0.70;;;;;;;21.50;16.46;99212.28;4936568;29;20063;-85
2022/05/02 11:12:51;;;;;;;0.60;0.60;;;;;;;20.82;17.21;99203.13;4935957;29;20138;-85
2022/05/02 11:15:25;;;;;;;0.50;0.50;;;;;;;18.99;18.15;99195.91;4935608;29;20062;-83
2022/05/02 11:21:47;;;;;;;0.40;0.40;;;;;;;19.07;18.81;99212.75;4859477;29;20053;-85
2022/05/02 11:24:38;;;;;;;0.40;0.40;;;;;;;17.75;19.52;99209.28;4842844;29;20061;-86
2022/05/02 11:27:26;;;;;;;0.57;0.57;;;;;;;18.47;19.43;99175.78;4858254;29;20563;-83
2022/05/02 11:30:10;;;;;;;0.80;0.80;;;;;;;20.00;18.06;99183.56;4858298;29;20057;-85
2022/05/02 11:33:12;;;;;;;0.88;0.88;;;;;;;20.78;17.16;99184.50;4857313;29;20204;-84
2022/05/02 11:35:48;;;;;;;0.90;0.90;;;;;;;21.12;17.15;99194.19;4857504;29;20438;-83
2022/05/02 11:38:41;;;;;;;0.90;0.90;;;;;;;20.47;17.49;99153.34;4842731;29;20061;-85
2022/05/02 11:41:17;;;;;;;0.80;0.80;;;;;;;20.99;17.68;99171.16;4857411;29;20559;-83
2022/05/02 11:43:46;;;;;;;0.80;0.80;;;;;;;21.34;17.45;99137.69;4842409;29;20870;-85
2022/05/02 11:46:24;;;;;;;0.60;0.60;;;;;;;21.13;17.71;99151.91;4857300;29;20106;-85
2022/05/02 11:49:02;;;;;;;0.40;0.40;;;;;;;21.71;17.17;99152.16;4857269;29;20515;-85
2022/05/02 11:51:45;;;;;;;0.32;0.32;;;;;;;19.95;18.45;99147.25;4842323;29;20054;-83
2022/05/02 11:54:37;;;;;;;0.40;0.40;;;;;;;19.00;19.08;99140.09;4842870;29;20161;-84
2022/05/02 11:57:22;;;;;;;0.40;0.40;;;;;;;18.15;19.93;99144.47;4867683;29;20109;-84
2022/05/02 12:00:14;;;;;;;0.40;0.40;;;;;;;17.55;20.67;99149.44;4935548;29;20059;-82
2022/05/02 12:02:52;;;;;;;0.50;0.50;;;;;;;17.41;20.60;99146.53;4902374;29;20063;-83
2022/05/02 12:05:33;;;;;;;0.70;0.70;;;;;;;18.81;19.71;99166.59;4919198;29;20502;-84
2022/05/02 12:08:06;;;;;;;0.45;0.45;;;;;;;18.88;19.99;99150.66;4918470;29;20051;-85
2022/05/02 12:10:47;;;;;;;0.40;0.40;;;;;;;18.13;20.62;99141.22;4922225;29;20060;-85
2022/05/02 12:13:17;;;;;;;0.40;0.40;;;;;;;17.73;20.83;99135.06;4946850;29;20055;-86
2022/05/02 12:16:10;;;;;;;0.40;0.40;;;;;;;17.06;21.64;99139.47;4944258;29;20047;-85
2022/05/02 12:18:43;;;;;;;0.50;0.50;;;;;;;17.84;20.88;99127.59;4938454;29;20063;-85
2022/05/02 12:21:34;;;;;;;0.40;0.40;;;;;;;17.17;21.82;99127.38;4935176;29;20395;-85
2022/05/02 12:24:04;;;;;;;1.00;1.00;;;;;;;18.89;20.08;99137.78;4918883;29;20067;-85
2022/05/02 12:26:46;;;;;;;0.40;0.40;;;;;;;17.57;21.21;99114.47;4934184;29;20586;-85
2022/05/02 12:29:18;;;;;;;0.40;0.40;;;;;;;16.99;22.13;99136.22;4917493;29;20082;-86
2022/05/02 12:32:03;;;;;;;0.40;0.40;;;;;;;16.78;22.60;99114.56;4935313;29;20071;-85
2022/05/02 12:34:41;;;;;;;0.40;0.40;;;;;;;16.69;22.60;99105.34;4918275;29;20056;-84
2022/05/02 12:37:20;;;;;;;0.40;0.40;;;;;;;16.12;23.43;99114.88;4917624;29;20158;-85
2022/05/02 12:40:12;;;;;;;0.40;0.40;;;;;;;15.88;23.72;99118.25;4919076;29;20107;-85
2022/05/02 12:42:47;;;;;;;0.40;0.40;;;;;;;15.55;24.62;99098.69;4917167;29;20530;-85
2022/05/02 12:45:17;;;;;;;0.40;0.40;;;;;;;15.53;24.52;99111.75;4933866;29;20058;-83
2022/05/02 12:48:06;;;;;;;0.40;0.40;;;;;;;15.37;24.53;99089.19;4917185;29;20518;-83
2022/05/02 12:50:54;;;;;;;0.50;0.50;;;;;;;15.64;24.78;99100.84;4901640;29;20065;-84